sensor_id;sensor_type;location;lat;lon;timestamp;pressure;altitude;pressure_sealevel;temperature;humidity
24160;BME280;62385;41.594;23.808;2023-02-11T00:00:53;97055.16;;;-4.56;60.75
24160;BME280;62385;41.594;23.808;2023-02-11T00:03:19;97044.09;;;-4.32;61.01
24160;BME280;62385;41.594;23.808;2023-02-11T00:05:44;97055.44;;;-4.36;60.12
24160;BME280;62385;41.594;23.808;2023-02-11T00:08:10;97053.53;;;-4.29;60.72
24160;BME280;62385;41.594;23.808;2023-02-11T00:10:41;97064.22;;;-4.41;60.87
24160;BME280;62385;41.594;23.808;2023-02-11T00:13:07;97067.19;;;-4.55;61.07
24160;BME280;62385;41.594;23.808;2023-02-11T00:15:33;97068.69;;;-4.46;60.58
24160;BME280;62385;41.594;23.808;2023-02-11T00:17:59;97063.19;;;-4.67;60.93
24160;BME280;62385;41.594;23.808;2023-02-11T00:20:25;97065.66;;;-4.62;60.46
24160;BME280;62385;41.594;23.808;2023-02-11T00:22:51;97071.56;;;-4.57;60.93
24160;BME280;62385;41.594;23.808;2023-02-11T00:25:17;97067.50;;;-4.67;61.31
24160;BME280;62385;41.594;23.808;2023-02-11T00:27:43;97065.91;;;-4.71;61.46
24160;BME280;62385;41.594;23.808;2023-02-11T00:30:09;97070.34;;;-4.76;61.32
24160;BME280;62385;41.594;23.808;2023-02-11T00:32:35;97068.69;;;-4.79;61.53
24160;BME280;62385;41.594;23.808;2023-02-11T00:35:02;97067.19;;;-4.87;61.62
24160;BME280;62385;41.594;23.808;2023-02-11T00:37:28;97077.53;;;-5.21;62.02
24160;BME280;62385;41.594;23.808;2023-02-11T00:39:54;97081.81;;;-5.19;62.64
24160;BME280;62385;41.594;23.808;2023-02-11T00:42:19;97090.34;;;-5.15;61.83
24160;BME280;62385;41.594;23.808;2023-02-11T00:44:45;97087.38;;;-5.35;62.56
24160;BME280;62385;41.594;23.808;2023-02-11T00:47:10;97084.53;;;-5.25;62.73
24160;BME280;62385;41.594;23.808;2023-02-11T00:49:36;97079.53;;;-5.32;62.62
24160;BME280;62385;41.594;23.808;2023-02-11T00:52:03;97084.00;;;-5.39;63.34
24160;BME280;62385;41.594;23.808;2023-02-11T00:54:29;97085.53;;;-5.30;62.76
24160;BME280;62385;41.594;23.808;2023-02-11T00:56:54;97082.16;;;-5.34;62.78
24160;BME280;62385;41.594;23.808;2023-02-11T00:59:22;97084.72;;;-5.34;62.44
24160;BME280;62385;41.594;23.808;2023-02-11T01:01:47;97078.47;;;-5.24;62.34
24160;BME280;62385;41.594;23.808;2023-02-11T01:04:14;97078.59;;;-5.30;62.38
24160;BME280;62385;41.594;23.808;2023-02-11T01:06:40;97077.91;;;-5.36;62.56
24160;BME280;62385;41.594;23.808;2023-02-11T01:09:05;97086.31;;;-5.64;62.96
24160;BME280;62385;41.594;23.808;2023-02-11T01:11:33;97079.53;;;-5.69;63.85
24160;BME280;62385;41.594;23.808;2023-02-11T01:14:00;97072.44;;;-5.61;64.27
24160;BME280;62385;41.594;23.808;2023-02-11T01:16:26;97064.44;;;-5.50;63.37
24160;BME280;62385;41.594;23.808;2023-02-11T01:18:52;97077.72;;;-5.66;63.92
24160;BME280;62385;41.594;23.808;2023-02-11T01:21:18;97070.53;;;-5.53;63.74
24160;BME280;62385;41.594;23.808;2023-02-11T01:23:44;97068.94;;;-5.59;63.85
24160;BME280;62385;41.594;23.808;2023-02-11T01:26:10;97069.50;;;-5.46;63.77
24160;BME280;62385;41.594;23.808;2023-02-11T01:28:36;97067.69;;;-5.42;63.21
24160;BME280;62385;41.594;23.808;2023-02-11T01:31:02;97062.28;;;-5.33;63.13
24160;BME280;62385;41.594;23.808;2023-02-11T01:33:29;97058.22;;;-5.08;62.05
24160;BME280;62385;41.594;23.808;2023-02-11T01:35:55;97066.28;;;-4.85;61.59
24160;BME280;62385;41.594;23.808;2023-02-11T01:38:26;97053.47;;;-4.91;61.59
24160;BME280;62385;41.594;23.808;2023-02-11T01:41:02;97056.22;;;-4.97;62.01
24160;BME280;62385;41.594;23.808;2023-02-11T01:43:38;97046.75;;;-4.66;60.71
24160;BME280;62385;41.594;23.808;2023-02-11T01:46:25;97049.75;;;-4.48;60.54
24160;BME280;62385;41.594;23.808;2023-02-11T01:48:56;97055.09;;;-4.54;61.98
24160;BME280;62385;41.594;23.808;2023-02-11T01:51:27;97050.31;;;-4.70;63.78
24160;BME280;62385;41.594;23.808;2023-02-11T01:53:56;97053.81;;;-4.71;64.11
24160;BME280;62385;41.594;23.808;2023-02-11T01:56:46;97058.25;;;-4.76;64.75
24160;BME280;62385;41.594;23.808;2023-02-11T01:59:42;97061.25;;;-4.91;65.08
24160;BME280;62385;41.594;23.808;2023-02-11T02:02:11;97058.50;;;-4.85;64.65
24160;BME280;62385;41.594;23.808;2023-02-11T02:04:46;97055.13;;;-4.88;65.08
24160;BME280;62385;41.594;23.808;2023-02-11T02:07:19;97053.56;;;-4.94;65.56
24160;BME280;62385;41.594;23.808;2023-02-11T02:09:54;97053.22;;;-5.14;65.18
24160;BME280;62385;41.594;23.808;2023-02-11T02:12:23;97056.13;;;-5.28;65.33
24160;BME280;62385;41.594;23.808;2023-02-11T02:14:49;97057.13;;;-5.70;65.25
24160;BME280;62385;41.594;23.808;2023-02-11T02:17:27;97063.84;;;-5.98;66.48
24160;BME280;62385;41.594;23.808;2023-02-11T02:32:48;97045.41;;;-6.23;65.94
24160;BME280;62385;41.594;23.808;2023-02-11T02:35:45;97042.66;;;-6.16;66.02
24160;BME280;62385;41.594;23.808;2023-02-11T02:38:19;97041.19;;;-6.27;66.24
24160;BME280;62385;41.594;23.808;2023-02-11T02:40:52;97037.09;;;-6.37;66.02
24160;BME280;62385;41.594;23.808;2023-02-11T02:43:21;97045.41;;;-6.23;65.75
24160;BME280;62385;41.594;23.808;2023-02-11T02:45:48;97047.72;;;-6.10;65.03
24160;BME280;62385;41.594;23.808;2023-02-11T02:48:29;97048.59;;;-6.11;64.46
24160;BME280;62385;41.594;23.808;2023-02-11T02:51:33;97041.22;;;-6.29;64.97
24160;BME280;62385;41.594;23.808;2023-02-11T02:57:22;97045.06;;;-6.48;65.71
24160;BME280;62385;41.594;23.808;2023-02-11T03:05:30;97051.19;;;-6.54;65.51
24160;BME280;62385;41.594;23.808;2023-02-11T03:10:51;97039.53;;;-6.30;64.51
24160;BME280;62385;41.594;23.808;2023-02-11T03:13:20;97035.00;;;-6.20;65.20
24160;BME280;62385;41.594;23.808;2023-02-11T03:15:50;97044.56;;;-6.24;64.49
24160;BME280;62385;41.594;23.808;2023-02-11T03:18:20;97042.72;;;-5.80;63.84
24160;BME280;62385;41.594;23.808;2023-02-11T03:20:50;97040.56;;;-5.97;63.46
24160;BME280;62385;41.594;23.808;2023-02-11T03:23:31;97046.72;;;-5.67;63.17
24160;BME280;62385;41.594;23.808;2023-02-11T03:26:29;97037.69;;;-5.49;63.86
24160;BME280;62385;41.594;23.808;2023-02-11T03:29:19;97040.44;;;-5.55;64.82
24160;BME280;62385;41.594;23.808;2023-02-11T03:34:54;97038.63;;;-5.53;65.09
24160;BME280;62385;41.594;23.808;2023-02-11T03:37:34;97041.03;;;-5.46;64.99
24160;BME280;62385;41.594;23.808;2023-02-11T03:40:04;97043.16;;;-5.62;65.19
24160;BME280;62385;41.594;23.808;2023-02-11T03:42:36;97032.63;;;-5.54;65.08
24160;BME280;62385;41.594;23.808;2023-02-11T03:45:08;97046.03;;;-5.75;65.72
24160;BME280;62385;41.594;23.808;2023-02-11T03:47:38;97044.78;;;-5.93;66.19
24160;BME280;62385;41.594;23.808;2023-02-11T03:50:07;97055.31;;;-6.45;65.73
24160;BME280;62385;41.594;23.808;2023-02-11T03:52:34;97057.34;;;-6.59;66.49
24160;BME280;62385;41.594;23.808;2023-02-11T03:55:06;97058.38;;;-6.69;66.09
24160;BME280;62385;41.594;23.808;2023-02-11T03:57:34;97058.22;;;-6.62;66.29
24160;BME280;62385;41.594;23.808;2023-02-11T03:59:59;97060.13;;;-6.70;66.20
24160;BME280;62385;41.594;23.808;2023-02-11T04:02:30;97061.78;;;-7.15;67.21
24160;BME280;62385;41.594;23.808;2023-02-11T04:05:16;97057.06;;;-6.90;66.54
24160;BME280;62385;41.594;23.808;2023-02-11T04:07:42;97049.16;;;-6.81;66.74
24160;BME280;62385;41.594;23.808;2023-02-11T04:10:08;97053.53;;;-6.86;66.29
24160;BME280;62385;41.594;23.808;2023-02-11T04:12:34;97056.84;;;-7.25;67.01
24160;BME280;62385;41.594;23.808;2023-02-11T04:14:59;97044.59;;;-7.14;67.10
24160;BME280;62385;41.594;23.808;2023-02-11T04:17:25;97052.47;;;-7.22;66.20
24160;BME280;62385;41.594;23.808;2023-02-11T04:19:50;97050.53;;;-7.11;66.35
24160;BME280;62385;41.594;23.808;2023-02-11T04:22:16;97051.59;;;-7.21;65.99
24160;BME280;62385;41.594;23.808;2023-02-11T04:24:41;97051.41;;;-7.10;66.34
24160;BME280;62385;41.594;23.808;2023-02-11T04:27:08;97054.63;;;-6.99;66.69
24160;BME280;62385;41.594;23.808;2023-02-11T04:29:34;97048.31;;;-7.30;66.31
24160;BME280;62385;41.594;23.808;2023-02-11T04:32:00;97050.81;;;-7.27;66.85
24160;BME280;62385;41.594;23.808;2023-02-11T04:34:25;97054.06;;;-7.15;66.34
24160;BME280;62385;41.594;23.808;2023-02-11T04:36:51;97051.41;;;-7.10;65.84
24160;BME280;62385;41.594;23.808;2023-02-11T04:39:17;97053.13;;;-7.11;66.19
24160;BME280;62385;41.594;23.808;2023-02-11T04:41:42;97049.81;;;-7.17;65.89
24160;BME280;62385;41.594;23.808;2023-02-11T04:44:08;97050.81;;;-6.78;64.71
24160;BME280;62385;41.594;23.808;2023-02-11T04:46:34;97052.25;;;-7.11;65.98
24160;BME280;62385;41.594;23.808;2023-02-11T04:48:59;97060.00;;;-7.10;65.39
24160;BME280;62385;41.594;23.808;2023-02-11T04:51:25;97062.63;;;-7.13;65.30
24160;BME280;62385;41.594;23.808;2023-02-11T04:53:50;97058.34;;;-7.15;65.28
24160;BME280;62385;41.594;23.808;2023-02-11T04:56:16;97060.81;;;-7.08;65.65
24160;BME280;62385;41.594;23.808;2023-02-11T04:58:41;97050.31;;;-6.98;65.64
24160;BME280;62385;41.594;23.808;2023-02-11T05:01:25;97053.78;;;-7.00;65.46
24160;BME280;62385;41.594;23.808;2023-02-11T05:03:51;97056.16;;;-6.87;65.33
24160;BME280;62385;41.594;23.808;2023-02-11T05:06:17;97057.13;;;-6.93;65.64
24160;BME280;62385;41.594;23.808;2023-02-11T05:08:43;97057.25;;;-6.55;65.05
24160;BME280;62385;41.594;23.808;2023-02-11T05:11:14;97057.88;;;-6.43;63.54
24160;BME280;62385;41.594;23.808;2023-02-11T05:13:41;97062.13;;;-6.39;63.74
24160;BME280;62385;41.594;23.808;2023-02-11T05:16:06;97063.41;;;-6.62;64.70
24160;BME280;62385;41.594;23.808;2023-02-11T05:18:32;97063.69;;;-6.77;65.22
24160;BME280;62385;41.594;23.808;2023-02-11T05:20:57;97062.94;;;-6.82;66.13
24160;BME280;62385;41.594;23.808;2023-02-11T05:23:23;97066.81;;;-6.60;65.11
24160;BME280;62385;41.594;23.808;2023-02-11T05:25:48;97060.88;;;-6.63;65.39
24160;BME280;62385;41.594;23.808;2023-02-11T05:28:14;97065.50;;;-6.80;65.12
24160;BME280;62385;41.594;23.808;2023-02-11T05:30:40;97065.41;;;-6.76;65.18
24160;BME280;62385;41.594;23.808;2023-02-11T05:33:05;97070.38;;;-7.13;65.79
24160;BME280;62385;41.594;23.808;2023-02-11T05:35:31;97075.63;;;-7.19;65.99
24160;BME280;62385;41.594;23.808;2023-02-11T05:37:57;97079.50;;;-6.95;65.64
24160;BME280;62385;41.594;23.808;2023-02-11T05:40:22;97080.34;;;-6.93;65.55
24160;BME280;62385;41.594;23.808;2023-02-11T05:42:48;97068.13;;;-6.83;65.22
24160;BME280;62385;41.594;23.808;2023-02-11T05:45:13;97074.19;;;-6.86;65.85
24160;BME280;62385;41.594;23.808;2023-02-11T05:47:39;97078.72;;;-6.98;65.74
24160;BME280;62385;41.594;23.808;2023-02-11T05:50:05;97079.72;;;-7.07;65.65
24160;BME280;62385;41.594;23.808;2023-02-11T05:52:30;97076.59;;;-6.75;65.62
24160;BME280;62385;41.594;23.808;2023-02-11T05:54:56;97080.44;;;-6.97;65.62
24160;BME280;62385;41.594;23.808;2023-02-11T05:57:22;97075.50;;;-6.64;65.53
24160;BME280;62385;41.594;23.808;2023-02-11T05:59:47;97087.09;;;-6.41;64.58
24160;BME280;62385;41.594;23.808;2023-02-11T06:02:13;97085.69;;;-6.56;64.75
24160;BME280;62385;41.594;23.808;2023-02-11T06:04:38;97082.94;;;-6.48;64.62
24160;BME280;62385;41.594;23.808;2023-02-11T06:07:05;97084.53;;;-6.41;64.88
24160;BME280;62385;41.594;23.808;2023-02-11T06:09:31;97082.22;;;-6.12;63.97
24160;BME280;62385;41.594;23.808;2023-02-11T06:11:57;97084.91;;;-5.78;64.00
24160;BME280;62385;41.594;23.808;2023-02-11T06:14:22;97090.56;;;-5.63;64.05
24160;BME280;62385;41.594;23.808;2023-02-11T06:16:48;97092.88;;;-5.49;63.97
24160;BME280;62385;41.594;23.808;2023-02-11T06:19:13;97075.59;;;-5.47;64.90
24160;BME280;62385;41.594;23.808;2023-02-11T06:21:41;97087.88;;;-5.56;65.01
24160;BME280;62385;41.594;23.808;2023-02-11T06:24:06;97071.38;;;-5.51;65.00
24160;BME280;62385;41.594;23.808;2023-02-11T06:26:32;97080.28;;;-5.27;64.50
24160;BME280;62385;41.594;23.808;2023-02-11T06:29:01;97076.31;;;-5.06;63.22
24160;BME280;62385;41.594;23.808;2023-02-11T06:31:27;97082.66;;;-5.18;64.02
24160;BME280;62385;41.594;23.808;2023-02-11T06:33:52;97070.91;;;-4.97;63.52
24160;BME280;62385;41.594;23.808;2023-02-11T06:36:20;97074.19;;;-4.91;63.48
24160;BME280;62385;41.594;23.808;2023-02-11T06:38:47;97067.72;;;-4.75;63.03
24160;BME280;62385;41.594;23.808;2023-02-11T06:41:14;97062.97;;;-4.59;62.22
24160;BME280;62385;41.594;23.808;2023-02-11T06:43:41;97066.28;;;-4.52;62.22
24160;BME280;62385;41.594;23.808;2023-02-11T06:46:25;97067.81;;;-4.47;61.97
24160;BME280;62385;41.594;23.808;2023-02-11T06:48:51;97060.03;;;-4.45;62.09
24160;BME280;62385;41.594;23.808;2023-02-11T06:51:17;97063.09;;;-4.31;62.03
24160;BME280;62385;41.594;23.808;2023-02-11T06:53:44;97061.38;;;-4.32;61.30
24160;BME280;62385;41.594;23.808;2023-02-11T06:56:16;97054.88;;;-4.16;61.65
24160;BME280;62385;41.594;23.808;2023-02-11T06:58:42;97054.03;;;-4.16;61.70
24160;BME280;62385;41.594;23.808;2023-02-11T07:01:10;97056.13;;;-4.29;61.92
24160;BME280;62385;41.594;23.808;2023-02-11T07:03:39;97067.34;;;-3.99;61.43
24160;BME280;62385;41.594;23.808;2023-02-11T07:06:06;97051.66;;;-3.95;60.23
24160;BME280;62385;41.594;23.808;2023-02-11T07:08:33;97058.38;;;-3.88;61.10
24160;BME280;62385;41.594;23.808;2023-02-11T07:11:00;97049.44;;;-3.78;60.83
24160;BME280;62385;41.594;23.808;2023-02-11T07:13:26;97057.81;;;-3.69;62.03
24160;BME280;62385;41.594;23.808;2023-02-11T07:15:51;97053.59;;;-3.44;61.12
24160;BME280;62385;41.594;23.808;2023-02-11T07:18:17;97054.13;;;-3.35;60.92
24160;BME280;62385;41.594;23.808;2023-02-11T07:20:42;97037.91;;;-3.41;60.98
24160;BME280;62385;41.594;23.808;2023-02-11T07:23:09;97051.44;;;-3.32;59.97
24160;BME280;62385;41.594;23.808;2023-02-11T07:25:36;97046.84;;;-3.23;60.88
24160;BME280;62385;41.594;23.808;2023-02-11T07:28:03;97041.91;;;-3.05;60.46
24160;BME280;62385;41.594;23.808;2023-02-11T07:30:29;97038.16;;;-2.96;60.30
24160;BME280;62385;41.594;23.808;2023-02-11T07:32:55;97044.16;;;-2.69;59.57
24160;BME280;62385;41.594;23.808;2023-02-11T07:35:20;97034.00;;;-2.77;58.78
24160;BME280;62385;41.594;23.808;2023-02-11T07:37:47;97030.16;;;-2.65;59.55
24160;BME280;62385;41.594;23.808;2023-02-11T07:40:12;97031.91;;;-2.91;59.66
24160;BME280;62385;41.594;23.808;2023-02-11T07:42:38;97026.56;;;-2.61;59.63
24160;BME280;62385;41.594;23.808;2023-02-11T07:45:05;97018.22;;;-2.46;59.68
24160;BME280;62385;41.594;23.808;2023-02-11T07:47:33;97020.59;;;-2.65;59.94
24160;BME280;62385;41.594;23.808;2023-02-11T07:49:59;97022.00;;;-2.32;59.98
24160;BME280;62385;41.594;23.808;2023-02-11T07:52:28;97015.94;;;-2.55;59.48
24160;BME280;62385;41.594;23.808;2023-02-11T07:54:55;97013.69;;;-1.95;58.18
24160;BME280;62385;41.594;23.808;2023-02-11T07:57:20;97014.59;;;-2.19;57.45
24160;BME280;62385;41.594;23.808;2023-02-11T07:59:46;97006.72;;;-1.71;56.52
24160;BME280;62385;41.594;23.808;2023-02-11T08:02:12;97006.16;;;-2.02;57.85
24160;BME280;62385;41.594;23.808;2023-02-11T08:04:37;96995.19;;;-1.87;58.36
24160;BME280;62385;41.594;23.808;2023-02-11T08:07:03;96989.13;;;-1.88;59.25
24160;BME280;62385;41.594;23.808;2023-02-11T08:09:29;96994.16;;;-1.83;59.39
24160;BME280;62385;41.594;23.808;2023-02-11T08:11:54;96984.78;;;-1.44;57.74
24160;BME280;62385;41.594;23.808;2023-02-11T08:14:20;96987.22;;;-1.82;59.46
24160;BME280;62385;41.594;23.808;2023-02-11T08:16:46;96985.97;;;-1.74;58.61
24160;BME280;62385;41.594;23.808;2023-02-11T08:19:14;96977.69;;;-1.40;56.72
24160;BME280;62385;41.594;23.808;2023-02-11T08:21:40;96981.00;;;-1.36;57.78
24160;BME280;62385;41.594;23.808;2023-02-11T08:24:06;96982.38;;;-1.06;56.02
24160;BME280;62385;41.594;23.808;2023-02-11T08:26:33;96979.94;;;-1.11;56.58
24160;BME280;62385;41.594;23.808;2023-02-11T08:29:01;96971.53;;;-1.17;57.05
24160;BME280;62385;41.594;23.808;2023-02-11T08:31:31;96966.75;;;-1.28;54.86
24160;BME280;62385;41.594;23.808;2023-02-11T08:33:58;96969.13;;;-1.02;54.12
24160;BME280;62385;41.594;23.808;2023-02-11T08:36:34;96965.78;;;-0.83;53.86
24160;BME280;62385;41.594;23.808;2023-02-11T08:39:04;96965.97;;;-1.08;54.90
24160;BME280;62385;41.594;23.808;2023-02-11T08:41:31;96966.69;;;-1.05;55.21
24160;BME280;62385;41.594;23.808;2023-02-11T08:43:57;96954.41;;;-0.82;53.48
24160;BME280;62385;41.594;23.808;2023-02-11T08:46:23;96953.34;;;-0.78;53.68
24160;BME280;62385;41.594;23.808;2023-02-11T08:48:49;96949.59;;;-0.71;53.53
24160;BME280;62385;41.594;23.808;2023-02-11T08:51:25;96945.97;;;-0.49;52.91
24160;BME280;62385;41.594;23.808;2023-02-11T08:53:55;96944.75;;;-0.60;52.73
24160;BME280;62385;41.594;23.808;2023-02-11T08:56:21;96947.97;;;-0.16;51.29
24160;BME280;62385;41.594;23.808;2023-02-11T08:58:50;96936.94;;;-0.04;51.14
24160;BME280;62385;41.594;23.808;2023-02-11T09:01:28;96938.03;;;-0.66;51.41
24160;BME280;62385;41.594;23.808;2023-02-11T09:03:54;96930.97;;;-0.06;51.46
24160;BME280;62385;41.594;23.808;2023-02-11T09:06:21;96928.75;;;0.22;50.67
24160;BME280;62385;41.594;23.808;2023-02-11T09:08:49;96916.06;;;0.15;50.08
24160;BME280;62385;41.594;23.808;2023-02-11T09:11:18;96918.34;;;0.04;50.57
24160;BME280;62385;41.594;23.808;2023-02-11T09:13:45;96923.59;;;0.57;49.30
24160;BME280;62385;41.594;23.808;2023-02-11T09:16:21;96914.25;;;0.34;49.75
24160;BME280;62385;41.594;23.808;2023-02-11T09:18:48;96907.31;;;0.52;49.02
24160;BME280;62385;41.594;23.808;2023-02-11T09:25:10;96895.34;;;0.65;47.16
24160;BME280;62385;41.594;23.808;2023-02-11T09:27:39;96882.59;;;1.26;45.16
24160;BME280;62385;41.594;23.808;2023-02-11T09:30:29;96884.59;;;1.21;46.59
24160;BME280;62385;41.594;23.808;2023-02-11T09:32:55;96889.13;;;1.17;45.79
24160;BME280;62385;41.594;23.808;2023-02-11T09:35:20;96880.19;;;1.21;46.00
24160;BME280;62385;41.594;23.808;2023-02-11T09:37:46;96876.88;;;1.02;44.93
24160;BME280;62385;41.594;23.808;2023-02-11T09:40:13;96871.03;;;1.30;44.26
24160;BME280;62385;41.594;23.808;2023-02-11T09:43:16;96866.19;;;1.55;43.68
24160;BME280;62385;41.594;23.808;2023-02-11T09:45:34;96865.03;;;1.61;44.28
24160;BME280;62385;41.594;23.808;2023-02-11T09:48:26;96854.31;;;1.81;43.25
24160;BME280;62385;41.594;23.808;2023-02-11T09:50:58;96852.44;;;1.83;43.14
24160;BME280;62385;41.594;23.808;2023-02-11T09:53:26;96846.03;;;1.73;40.99
24160;BME280;62385;41.594;23.808;2023-02-11T09:55:58;96854.97;;;2.16;40.57
24160;BME280;62385;41.594;23.808;2023-02-11T09:58:37;96840.34;;;2.12;41.18
24160;BME280;62385;41.594;23.808;2023-02-11T10:01:18;96837.84;;;1.79;40.50
24160;BME280;62385;41.594;23.808;2023-02-11T10:03:52;96834.38;;;2.10;41.22
24160;BME280;62385;41.594;23.808;2023-02-11T10:06:42;96830.72;;;2.12;39.94
24160;BME280;62385;41.594;23.808;2023-02-11T10:12:02;96821.19;;;2.41;38.54
24160;BME280;62385;41.594;23.808;2023-02-11T10:17:36;96802.63;;;2.60;38.26
24160;BME280;62385;41.594;23.808;2023-02-11T10:22:42;96786.44;;;2.67;37.91
24160;BME280;62385;41.594;23.808;2023-02-11T10:25:20;96782.09;;;3.10;37.56
24160;BME280;62385;41.594;23.808;2023-02-11T10:27:46;96778.88;;;3.19;36.28
24160;BME280;62385;41.594;23.808;2023-02-11T10:30:28;96771.47;;;2.84;35.45
24160;BME280;62385;41.594;23.808;2023-02-11T10:35:24;96750.91;;;3.61;35.53
24160;BME280;62385;41.594;23.808;2023-02-11T10:37:53;96736.16;;;3.72;34.40
24160;BME280;62385;41.594;23.808;2023-02-11T10:40:25;96743.16;;;3.45;33.88
24160;BME280;62385;41.594;23.808;2023-02-11T10:42:54;96733.47;;;3.60;33.57
24160;BME280;62385;41.594;23.808;2023-02-11T10:45:42;96727.56;;;3.56;33.07
24160;BME280;62385;41.594;23.808;2023-02-11T10:51:15;96722.19;;;3.72;30.83
24160;BME280;62385;41.594;23.808;2023-02-11T10:53:42;96713.69;;;3.81;30.46
24160;BME280;62385;41.594;23.808;2023-02-11T10:56:11;96698.44;;;3.73;30.54
24160;BME280;62385;41.594;23.808;2023-02-11T10:58:53;96699.69;;;4.07;28.87
24160;BME280;62385;41.594;23.808;2023-02-11T11:01:20;96697.41;;;4.15;30.45
24160;BME280;62385;41.594;23.808;2023-02-11T11:03:48;96692.81;;;4.57;31.27
24160;BME280;62385;41.594;23.808;2023-02-11T11:06:14;96679.47;;;4.22;31.15
24160;BME280;62385;41.594;23.808;2023-02-11T11:08:50;96682.31;;;4.57;30.36
24160;BME280;62385;41.594;23.808;2023-02-11T11:11:21;96678.41;;;4.50;31.09
24160;BME280;62385;41.594;23.808;2023-02-11T11:18:46;96654.59;;;5.02;29.28
24160;BME280;62385;41.594;23.808;2023-02-11T11:21:22;96636.50;;;4.85;29.29
24160;BME280;62385;41.594;23.808;2023-02-11T11:23:53;96640.94;;;4.97;29.97
24160;BME280;62385;41.594;23.808;2023-02-11T11:26:19;96632.66;;;5.14;30.63
24160;BME280;62385;41.594;23.808;2023-02-11T11:31:20;96639.00;;;5.11;31.04
24160;BME280;62385;41.594;23.808;2023-02-11T11:33:47;96633.63;;;5.13;30.07
24160;BME280;62385;41.594;23.808;2023-02-11T11:36:37;96628.44;;;5.24;30.74
24160;BME280;62385;41.594;23.808;2023-02-11T11:39:30;96613.94;;;5.42;31.42
24160;BME280;62385;41.594;23.808;2023-02-11T11:41:58;96609.25;;;5.58;30.38
24160;BME280;62385;41.594;23.808;2023-02-11T11:44:32;96597.78;;;5.47;30.60
24160;BME280;62385;41.594;23.808;2023-02-11T11:49:41;96602.31;;;5.69;30.93
24160;BME280;62385;41.594;23.808;2023-02-11T11:52:17;96592.53;;;5.71;30.34
24160;BME280;62385;41.594;23.808;2023-02-11T11:54:50;96595.63;;;5.17;30.84
24160;BME280;62385;41.594;23.808;2023-02-11T11:57:24;96585.72;;;5.55;30.39
24160;BME280;62385;41.594;23.808;2023-02-11T11:59:54;96572.50;;;5.92;31.62
24160;BME280;62385;41.594;23.808;2023-02-11T12:03:03;96572.34;;;5.11;32.25
24160;BME280;62385;41.594;23.808;2023-02-11T12:05:26;96560.63;;;5.97;30.95
24160;BME280;62385;41.594;23.808;2023-02-11T12:08:19;96553.41;;;6.45;30.17
24160;BME280;62385;41.594;23.808;2023-02-11T12:10:57;96544.59;;;5.66;31.55
24160;BME280;62385;41.594;23.808;2023-02-11T12:21:59;96520.53;;;6.72;30.24
24160;BME280;62385;41.594;23.808;2023-02-11T12:25:03;96522.63;;;7.00;30.47
24160;BME280;62385;41.594;23.808;2023-02-11T12:28:03;96516.91;;;6.95;28.22
24160;BME280;62385;41.594;23.808;2023-02-11T12:38:54;96512.09;;;7.32;29.15
24160;BME280;62385;41.594;23.808;2023-02-11T12:50:12;96501.91;;;7.27;25.39
24160;BME280;62385;41.594;23.808;2023-02-11T12:55:32;96497.75;;;6.26;24.62
24160;BME280;62385;41.594;23.808;2023-02-11T12:58:01;96486.13;;;7.16;23.36
24160;BME280;62385;41.594;23.808;2023-02-11T13:03:10;96487.69;;;7.39;24.48
24160;BME280;62385;41.594;23.808;2023-02-11T13:05:39;96481.41;;;7.52;25.86
24160;BME280;62385;41.594;23.808;2023-02-11T13:10:57;96483.59;;;7.67;26.31
24160;BME280;62385;41.594;23.808;2023-02-11T13:13:59;96474.25;;;7.84;27.21
24160;BME280;62385;41.594;23.808;2023-02-11T13:26:49;96454.19;;;7.08;28.57
24160;BME280;62385;41.594;23.808;2023-02-11T13:31:42;96459.41;;;7.30;29.86
24160;BME280;62385;41.594;23.808;2023-02-11T13:40:24;96450.44;;;7.22;29.73
24160;BME280;62385;41.594;23.808;2023-02-11T13:45:40;96450.53;;;7.52;29.64
24160;BME280;62385;41.594;23.808;2023-02-11T13:50:53;96449.94;;;7.90;29.14
24160;BME280;62385;41.594;23.808;2023-02-11T13:53:20;96441.31;;;8.18;28.25
24160;BME280;62385;41.594;23.808;2023-02-11T13:55:51;96442.72;;;8.22;26.11
24160;BME280;62385;41.594;23.808;2023-02-11T14:00:53;96440.16;;;8.11;27.48
24160;BME280;62385;41.594;23.808;2023-02-11T14:14:22;96431.75;;;8.27;27.43
24160;BME280;62385;41.594;23.808;2023-02-11T14:22:30;96426.53;;;8.16;28.26
24160;BME280;62385;41.594;23.808;2023-02-11T14:25:15;96420.41;;;8.46;27.41
24160;BME280;62385;41.594;23.808;2023-02-11T14:27:51;96413.69;;;8.42;27.91
24160;BME280;62385;41.594;23.808;2023-02-11T14:30:36;96414.91;;;8.28;28.51
24160;BME280;62385;41.594;23.808;2023-02-11T14:38:42;96417.16;;;8.32;28.49
24160;BME280;62385;41.594;23.808;2023-02-11T14:43:47;96415.91;;;8.06;29.45
24160;BME280;62385;41.594;23.808;2023-02-11T14:46:15;96410.38;;;8.40;28.36
24160;BME280;62385;41.594;23.808;2023-02-11T14:48:45;96408.84;;;8.47;28.85
24160;BME280;62385;41.594;23.808;2023-02-11T14:53:45;96406.59;;;8.02;28.72
24160;BME280;62385;41.594;23.808;2023-02-11T14:56:26;96409.25;;;8.12;29.44
24160;BME280;62385;41.594;23.808;2023-02-11T14:58:54;96395.53;;;8.27;29.62
24160;BME280;62385;41.594;23.808;2023-02-11T15:03:52;96401.41;;;8.01;30.97
24160;BME280;62385;41.594;23.808;2023-02-11T15:06:40;96396.44;;;8.07;30.05
24160;BME280;62385;41.594;23.808;2023-02-11T15:09:14;96404.50;;;8.06;30.46
24160;BME280;62385;41.594;23.808;2023-02-11T15:11:42;96412.13;;;7.69;30.78
24160;BME280;62385;41.594;23.808;2023-02-11T15:14:23;96399.78;;;8.09;30.26
24160;BME280;62385;41.594;23.808;2023-02-11T15:16:54;96408.00;;;8.16;30.30
24160;BME280;62385;41.594;23.808;2023-02-11T15:19:29;96410.22;;;8.31;29.72
24160;BME280;62385;41.594;23.808;2023-02-11T15:21:57;96410.94;;;8.13;29.58
24160;BME280;62385;41.594;23.808;2023-02-11T15:24:28;96415.19;;;7.95;30.06
24160;BME280;62385;41.594;23.808;2023-02-11T15:26:59;96415.34;;;7.52;30.33
24160;BME280;62385;41.594;23.808;2023-02-11T15:29:27;96420.56;;;6.89;31.81
24160;BME280;62385;41.594;23.808;2023-02-11T15:32:12;96433.50;;;6.49;32.56
24160;BME280;62385;41.594;23.808;2023-02-11T15:34:38;96427.50;;;6.47;32.59